Cessnock, New South Wales

12:27 PM AEST on July 27, 2016 (GMT +1000)
INSWQUOR2 | | Change Station

Elev 522 ft 32.91 °S, 151.38 °E | Updated 26 seconds ago

Clear
Clear
53.8 °F
Feels Like 53.8 °F
N
1.3
Wind Variable Wind from WNW
Gusts 2.2 mph

Today
High -- | Low -- °F
--% Chance of Precip.
Yesterday
High -- | Low -- °F
Precip. -- in
Pressure 29.95 in
Visibility -9999.0 miles
Clouds
Dew Point 34.6 °F
Humidity 48%
Rainfall 0.00 in
Snow Depth Not available.
6:48 AM 5:13 PM
Waning Gibbous, 48% visible
SPECI YWLM 270200Z 31028G38KT CAVOK 18/03 Q1014 FM0200 30025G42KT 9999 FEW045 FM0400 29020G32KT CAVOK FM0200 MOD/SEV TURB BLW 5000FT
Pressure 29.95 in
Visibility -9999.0 miles
Clouds
Dew Point 34.6 °F
Humidity 48%
Rainfall 0.00 in
Snow Depth Not available.
6:48 AM 5:13 PM
Waning Gibbous, 48% visible
SPECI YWLM 270200Z 31028G38KT CAVOK 18/03 Q1014 FM0200 30025G42KT 9999 FEW045 FM0400 29020G32KT CAVOK FM0200 MOD/SEV TURB BLW 5000FT

10-Day Weather Forecast

Almanac

Astronomy

Jul. 27, 2016 Rise Set
Actual Time
Civil Twilight
Nautical Twilight
Astronomical Twilight
Moon
Length of Visible Light
Length of Day
Tomorrow will be .
, % of the Moon is Illuminated

Today's Extremes

Country Highs Country Lows

Community

WunderPhotos

Upload Photos

1,927,777 photos uploaded!

WunderBlog® & News

Nearby

Air Quality

  Air Quality AQ Index Pollutant
Not available.

Snow Depth

Station Depth Elevation

Earthquake Activity

City Distance Mag. Time & Date
Minimum magnitude displayed is 2.5.

Coastal Water Temperatures

Place Temperature

Stations

Nearby Weather Stations

Station Location Temp. Windchill Dew Point Humidity Wind Precip. Elev Updated Type